createdAt,value
2018-07-06T05:01:08.324Z,21.10
2018-07-06T05:03:48.022Z,9.80
2018-07-06T05:06:27.965Z,14.20
2018-07-06T05:09:07.524Z,13.50
2018-07-06T05:11:47.306Z,19.83
2018-07-06T05:14:26.785Z,23.57
2018-07-06T05:17:06.487Z,12.87
2018-07-06T05:19:45.948Z,13.90
2018-07-06T05:22:25.716Z,20.20
2018-07-06T05:25:05.386Z,13.47
2018-07-06T05:27:44.985Z,25.13
2018-07-06T05:30:24.654Z,17.37
2018-07-06T05:32:58.243Z,15.30
2018-07-06T05:35:37.901Z,18.70
2018-07-06T05:38:11.522Z,25.30
2018-07-06T05:40:51.314Z,16.53
2018-07-06T05:43:31.075Z,13.67
2018-07-06T05:46:10.876Z,16.33
2018-07-06T05:48:50.484Z,9.10
2018-07-06T05:51:30.128Z,11.70
2018-07-06T05:54:09.749Z,18.63
2018-07-06T05:56:43.341Z,19.83
2018-07-06T05:59:22.939Z,8.37
2018-07-06T06:02:02.716Z,12.60
2018-07-06T06:04:42.306Z,17.53
2018-07-06T06:07:24.397Z,11.77
2018-07-06T06:09:52.878Z,13.53
2018-07-06T06:12:21.459Z,11.13
2018-07-06T06:14:50.742Z,17.33
2018-07-06T06:17:19.148Z,13.30
2018-07-06T06:19:47.698Z,20.83
2018-07-06T06:22:16.142Z,15.63
2018-07-06T06:24:44.666Z,28.37
2018-07-06T06:27:13.107Z,15.17
2018-07-06T06:29:41.677Z,22.00
2018-07-06T06:32:10.494Z,18.50
2018-07-06T06:34:39.053Z,28.13
2018-07-06T06:37:07.521Z,24.20
2018-07-06T06:39:36.060Z,25.87
2018-07-06T06:42:04.560Z,19.90
2018-07-06T06:44:33.080Z,25.17
2018-07-06T06:47:01.579Z,22.83
2018-07-06T06:49:31.179Z,27.77
2018-07-06T06:52:00.253Z,27.80
2018-07-06T06:54:28.905Z,22.40
2018-07-06T06:56:57.450Z,32.07
2018-07-06T06:59:25.912Z,32.57
2018-07-06T07:01:54.368Z,50.50
2018-07-06T07:04:22.982Z,35.03
2018-07-06T07:06:51.496Z,36.97
2018-07-06T07:09:20.027Z,46.50
2018-07-06T07:11:48.512Z,75.63
2018-07-06T07:14:17.083Z,66.70
2018-07-06T07:16:45.533Z,52.30
2018-07-06T07:19:14.067Z,55.47
2018-07-06T07:21:42.577Z,60.63
2018-07-06T07:24:11.192Z,71.00
2018-07-06T07:26:39.693Z,56.70
2018-07-06T07:29:08.147Z,53.37
2018-07-06T07:31:36.685Z,52.67
2018-07-06T07:34:05.209Z,58.43
2018-07-06T07:36:33.794Z,54.50
2018-07-06T07:39:02.462Z,63.30
2018-07-06T07:41:30.928Z,54.43
2018-07-06T07:43:59.626Z,58.80
2018-07-06T07:46:28.115Z,63.53
2018-07-06T07:48:56.641Z,62.57
2018-07-06T07:52:03.837Z,62.30
2018-07-06T07:54:41.027Z,62.97
2018-07-06T07:57:09.507Z,58.60
2018-07-06T07:59:38.257Z,79.57
2018-07-06T08:02:07.096Z,73.50
2018-07-06T08:04:37.525Z,58.23
2018-07-06T08:07:06.060Z,64.90
2018-07-06T08:09:35.134Z,63.90
2018-07-06T08:12:04.225Z,60.73
2018-07-06T08:14:32.779Z,57.53
2018-07-06T08:17:01.211Z,62.53
2018-07-06T08:19:29.725Z,61.93
2018-07-06T08:21:58.177Z,146.97
2018-07-06T08:24:26.641Z,63.07
2018-07-06T08:26:55.141Z,58.77
2018-07-06T08:29:24.024Z,54.00
2018-07-06T08:31:52.478Z,58.10
2018-07-06T08:34:32.129Z,57.53
2018-07-06T08:37:52.665Z,59.27
2018-07-06T08:40:22.238Z,53.13
2018-07-06T08:42:52.971Z,53.13
2018-07-06T08:45:21.465Z,50.03
2018-07-06T08:47:50.103Z,50.53
2018-07-06T08:50:18.621Z,50.43
2018-07-06T08:52:48.308Z,43.33
2018-07-06T08:55:17.102Z,49.50
2018-07-06T08:57:46.489Z,47.10
2018-07-06T09:00:14.984Z,37.83
2018-07-06T09:02:43.481Z,52.83
2018-07-06T09:05:12.569Z,40.97
2018-07-06T09:07:40.748Z,61.17
2018-07-06T09:10:09.252Z,43.30
2018-07-06T09:12:38.196Z,45.67
2018-07-06T09:15:07.197Z,45.10
2018-07-06T09:17:35.660Z,38.70
2018-07-06T09:20:04.240Z,35.23
2018-07-06T09:22:32.706Z,32.17
2018-07-06T09:25:03.666Z,29.13
2018-07-06T09:27:31.899Z,29.47
2018-07-06T09:30:00.403Z,33.63
2018-07-06T09:32:28.842Z,38.10
2018-07-06T09:34:57.319Z,36.90
2018-07-06T09:37:25.789Z,39.53
2018-07-06T09:39:54.333Z,36.30
2018-07-06T09:42:22.908Z,32.40
2018-07-06T09:44:51.428Z,37.83
2018-07-06T09:47:20.410Z,33.30
2018-07-06T09:49:48.882Z,25.07
2018-07-06T09:52:17.332Z,28.70
2018-07-06T09:54:45.769Z,39.37
2018-07-06T09:57:14.246Z,18.43
2018-07-06T09:59:42.684Z,16.63
2018-07-06T10:02:11.146Z,22.83
2018-07-06T10:04:39.593Z,24.73
2018-07-06T10:07:08.110Z,23.03
2018-07-06T10:09:36.606Z,17.37
2018-07-06T10:12:05.082Z,29.73
2018-07-06T10:14:33.543Z,20.27
2018-07-06T10:17:02.042Z,21.87
2018-07-06T10:19:30.589Z,19.83
2018-07-06T10:21:58.996Z,19.07
2018-07-06T10:24:27.497Z,16.57
2018-07-06T10:26:56.538Z,17.63
2018-07-06T10:30:34.886Z,19.07
2018-07-06T10:33:03.419Z,20.40
2018-07-06T10:35:31.822Z,20.73
2018-07-06T10:38:00.262Z,25.57
2018-07-06T10:40:28.796Z,25.97
2018-07-06T10:42:57.265Z,21.93
2018-07-06T10:45:25.706Z,25.03
2018-07-06T10:47:54.161Z,28.00
2018-07-06T10:50:22.674Z,19.43
2018-07-06T10:52:51.153Z,21.77
2018-07-06T10:55:19.629Z,25.97
2018-07-06T10:57:48.081Z,22.57
2018-07-06T11:00:16.601Z,23.73
2018-07-06T11:02:45.120Z,24.53
2018-07-06T11:05:13.577Z,23.43
2018-07-06T11:07:42.057Z,20.60
2018-07-06T11:10:10.563Z,29.53
2018-07-06T11:12:39.005Z,20.37
2018-07-06T11:15:07.476Z,18.63
2018-07-06T11:17:35.993Z,33.80
2018-07-06T11:20:04.522Z,26.40
2018-07-06T11:22:32.982Z,17.40
2018-07-06T11:25:01.499Z,22.30
2018-07-06T11:27:29.952Z,22.27
2018-07-06T11:29:58.419Z,19.57
2018-07-06T11:32:26.876Z,17.23
2018-07-06T11:34:55.357Z,13.43
2018-07-06T11:37:23.482Z,12.10
2018-07-06T11:39:51.971Z,15.60
2018-07-06T11:42:20.445Z,20.47
2018-07-06T11:44:48.965Z,19.93
2018-07-06T11:47:17.450Z,26.27
2018-07-06T11:49:45.936Z,15.73
2018-07-06T11:52:14.393Z,16.40
2018-07-06T11:54:42.842Z,15.60
2018-07-06T11:57:11.313Z,14.20
2018-07-06T11:59:39.762Z,13.53
2018-07-06T12:02:08.250Z,11.63
2018-07-06T12:04:36.742Z,13.57
2018-07-06T12:07:05.240Z,21.53
2018-07-06T12:09:33.687Z,17.23
2018-07-06T12:12:02.189Z,20.17
2018-07-06T12:14:30.681Z,13.67
2018-07-06T12:16:59.166Z,12.40
2018-07-06T12:19:27.711Z,14.37
2018-07-06T12:21:56.168Z,12.80
2018-07-06T12:24:25.150Z,16.50
2018-07-06T12:26:53.624Z,12.90
2018-07-06T12:29:22.102Z,19.73
2018-07-06T12:31:50.569Z,10.97
2018-07-06T12:34:19.064Z,11.67
2018-07-06T12:36:47.587Z,20.03
2018-07-06T12:39:16.020Z,14.07
2018-07-06T12:41:44.545Z,12.33
2018-07-06T12:44:13.008Z,15.20
2018-07-06T12:46:41.481Z,13.33
2018-07-06T12:49:10.119Z,12.73
2018-07-06T12:51:38.647Z,19.13
2018-07-06T12:54:07.132Z,13.17
2018-07-06T12:56:35.602Z,16.17
2018-07-06T12:59:03.804Z,12.57
2018-07-06T13:01:32.278Z,8.80
2018-07-06T13:04:00.785Z,13.23
2018-07-06T13:06:29.254Z,9.67
2018-07-06T13:08:57.870Z,12.10
2018-07-06T13:11:26.448Z,12.30
2018-07-06T13:13:54.930Z,10.20
2018-07-06T13:16:23.459Z,15.77
2018-07-06T13:18:51.929Z,11.53
2018-07-06T13:21:20.385Z,13.23
2018-07-06T13:23:48.929Z,7.93
2018-07-06T13:26:17.509Z,13.33
2018-07-06T13:28:46.082Z,9.87
2018-07-06T13:31:14.616Z,17.33
2018-07-06T13:33:43.108Z,19.33
2018-07-06T13:36:11.706Z,13.70
2018-07-06T13:38:40.217Z,18.90
2018-07-06T13:41:08.863Z,12.90
2018-07-06T13:43:37.510Z,10.10
2018-07-06T13:46:06.059Z,17.93
2018-07-06T13:48:34.521Z,10.63
2018-07-06T13:51:03.010Z,17.57
2018-07-06T13:53:31.469Z,19.70
2018-07-06T13:55:59.924Z,11.30
2018-07-06T13:58:28.467Z,9.53
2018-07-06T14:00:56.955Z,16.03
2018-07-06T14:03:25.426Z,18.17
2018-07-06T14:05:53.871Z,11.40
2018-07-06T14:08:22.465Z,14.50
2018-07-06T14:10:50.932Z,14.57
2018-07-06T14:13:19.387Z,13.70
2018-07-06T14:15:47.967Z,7.70
2018-07-06T14:18:16.468Z,6.30
2018-07-06T14:20:44.933Z,19.00
2018-07-06T14:23:13.385Z,23.50
2018-07-06T14:25:41.869Z,8.87
2018-07-06T14:28:10.078Z,7.57
2018-07-06T14:30:38.632Z,11.47
2018-07-06T14:33:07.167Z,10.63
2018-07-06T14:35:35.619Z,6.97
2018-07-06T14:38:04.160Z,9.03
2018-07-06T14:40:32.645Z,9.47
2018-07-06T14:43:01.128Z,8.83
2018-07-06T14:45:29.660Z,20.07
2018-07-06T14:47:58.222Z,16.30
2018-07-06T14:50:26.726Z,11.17
2018-07-06T14:52:55.307Z,17.80
2018-07-06T14:55:23.761Z,10.60
2018-07-06T14:57:52.261Z,16.23
2018-07-06T15:00:20.738Z,19.00
2018-07-06T15:02:49.430Z,13.57
2018-07-06T15:05:18.049Z,16.27
2018-07-06T15:07:46.538Z,31.00
2018-07-06T15:10:15.010Z,17.63
2018-07-06T15:12:43.551Z,15.27
2018-07-06T15:15:12.760Z,22.93
2018-07-06T15:17:42.678Z,13.67
2018-07-06T15:20:11.216Z,12.70
2018-07-06T15:22:39.810Z,15.30
2018-07-06T15:25:08.340Z,17.40
2018-07-06T15:27:36.900Z,16.37
2018-07-06T15:30:05.782Z,15.87
2018-07-06T15:32:35.662Z,13.97
2018-07-06T15:35:04.179Z,15.27
2018-07-06T15:37:32.677Z,17.80
2018-07-06T15:40:01.369Z,19.43
2018-07-06T15:42:29.856Z,19.50
2018-07-06T15:44:58.341Z,11.27
2018-07-06T15:47:26.917Z,11.47
2018-07-06T15:49:55.504Z,8.50
2018-07-06T15:52:24.053Z,15.00
2018-07-06T15:54:52.547Z,18.93
2018-07-06T15:57:21.067Z,12.30
2018-07-06T15:59:49.561Z,11.50
2018-07-06T16:02:17.992Z,12.60
2018-07-06T16:04:46.471Z,12.17
2018-07-06T16:07:14.908Z,12.03
2018-07-06T16:09:43.373Z,14.13
2018-07-06T16:12:11.962Z,13.50
2018-07-06T16:14:40.474Z,22.23
2018-07-06T16:17:09.240Z,14.87
2018-07-06T16:19:37.721Z,13.97
2018-07-06T16:22:06.376Z,11.63
2018-07-06T16:24:34.861Z,14.80
2018-07-06T16:27:03.305Z,20.07
2018-07-06T16:29:31.771Z,12.23
2018-07-06T16:32:00.208Z,13.07
2018-07-06T16:34:28.777Z,16.50
2018-07-06T16:36:57.300Z,13.50
2018-07-06T16:39:25.838Z,13.90
2018-07-06T16:41:54.284Z,14.07
2018-07-06T16:44:22.756Z,15.73
2018-07-06T16:46:51.210Z,15.50
2018-07-06T16:49:19.682Z,10.50
2018-07-06T16:51:48.165Z,11.27
2018-07-06T16:54:16.613Z,14.97
2018-07-06T16:56:45.050Z,16.73
2018-07-06T16:59:13.561Z,11.43
2018-07-06T17:01:42.018Z,9.83
2018-07-06T17:04:10.481Z,30.33
2018-07-06T17:06:39.006Z,13.20
2018-07-06T17:09:07.460Z,13.67
2018-07-06T17:11:35.990Z,14.37
2018-07-06T17:14:04.491Z,14.20
2018-07-06T17:16:33.065Z,11.90
2018-07-06T17:19:01.558Z,7.37
2018-07-06T17:21:29.995Z,10.03
2018-07-06T17:23:58.432Z,10.97
2018-07-06T17:26:26.921Z,22.73
2018-07-06T17:28:55.420Z,18.13
2018-07-06T17:31:23.937Z,8.93
2018-07-06T17:33:52.380Z,13.53
2018-07-06T17:36:20.820Z,20.23
2018-07-06T17:38:49.262Z,22.57
2018-07-06T17:41:18.314Z,10.97
2018-07-06T17:43:46.804Z,10.80
2018-07-06T17:46:15.269Z,14.73
2018-07-06T17:48:43.758Z,18.27
2018-07-06T17:51:12.258Z,18.03
2018-07-06T17:53:40.829Z,7.80
2018-07-06T17:56:09.353Z,14.50
2018-07-06T17:58:37.896Z,7.30
2018-07-06T18:01:06.385Z,14.13
2018-07-06T18:03:34.974Z,17.60
2018-07-06T18:06:03.492Z,10.57
2018-07-06T18:08:31.944Z,23.40
2018-07-06T18:11:00.402Z,16.03
2018-07-06T18:13:28.952Z,17.40
2018-07-06T18:15:57.475Z,14.13
2018-07-06T18:18:26.068Z,5.53
2018-07-06T18:20:54.605Z,14.73
2018-07-06T18:23:23.174Z,13.67
2018-07-06T18:25:51.576Z,5.23
2018-07-06T18:28:20.026Z,6.77
2018-07-06T18:30:49.202Z,11.23
2018-07-06T18:33:18.064Z,24.50
2018-07-06T18:35:47.040Z,11.63
2018-07-06T18:38:15.877Z,8.03
2018-07-06T18:40:44.340Z,9.40
2018-07-06T18:43:12.793Z,10.53
2018-07-06T18:45:41.290Z,10.70
2018-07-06T18:48:10.123Z,9.47
2018-07-06T18:50:39.028Z,7.10
2018-07-06T18:53:08.015Z,15.40
2018-07-06T18:55:36.632Z,11.53
2018-07-06T18:58:05.384Z,13.13
2018-07-06T19:00:33.912Z,15.60
2018-07-06T19:03:02.386Z,12.03
2018-07-06T19:05:30.917Z,7.30
2018-07-06T19:08:00.158Z,16.00
2018-07-06T19:10:28.677Z,6.00
2018-07-06T19:12:57.462Z,21.53
2018-07-06T19:15:26.385Z,7.83
2018-07-06T19:17:55.233Z,17.10
2018-07-06T19:20:23.709Z,7.77
2018-07-06T19:22:52.171Z,13.43
2018-07-06T19:25:20.633Z,14.83
2018-07-06T19:27:49.125Z,23.70
2018-07-06T19:30:18.280Z,12.53
2018-07-06T19:32:47.170Z,8.07
2018-07-06T19:35:16.057Z,7.30
2018-07-06T19:37:44.609Z,13.73
2018-07-06T19:40:13.125Z,14.83
2018-07-06T19:42:41.582Z,7.97
2018-07-06T19:45:10.079Z,14.10
2018-07-06T19:47:38.806Z,12.07
2018-07-06T19:50:08.074Z,20.67
2018-07-06T19:52:36.734Z,11.33
2018-07-06T19:55:05.374Z,16.33
2018-07-06T19:57:33.931Z,24.37
2018-07-06T20:00:02.384Z,14.17
2018-07-06T20:02:30.842Z,18.03
2018-07-06T20:04:59.078Z,14.43
2018-07-06T20:07:27.643Z,17.13
2018-07-06T20:09:56.166Z,22.63
2018-07-06T20:12:24.699Z,19.73
2018-07-06T20:14:53.122Z,8.90
2018-07-06T20:17:21.997Z,14.93
2018-07-06T20:19:50.493Z,11.47
2018-07-06T20:22:19.142Z,20.83
2018-07-06T20:24:47.937Z,51.13
2018-07-06T20:27:16.488Z,24.87
2018-07-06T20:29:44.967Z,19.83
2018-07-06T20:32:13.457Z,22.67
2018-07-06T20:34:41.931Z,12.33
2018-07-06T20:37:10.504Z,13.03
2018-07-06T20:39:39.197Z,19.07
2018-07-06T20:42:07.865Z,24.00
2018-07-06T20:44:36.398Z,14.73
2018-07-06T20:47:05.037Z,14.50
2018-07-06T20:49:33.508Z,11.43
2018-07-06T20:52:01.978Z,27.90
2018-07-06T20:54:30.457Z,13.10
2018-07-06T20:56:59.062Z,17.03
2018-07-06T20:59:27.690Z,14.33
2018-07-06T21:01:56.166Z,16.53
2018-07-06T21:04:24.660Z,19.23
2018-07-06T21:06:52.813Z,19.40
2018-07-06T21:09:21.288Z,12.47
2018-07-06T21:11:49.778Z,17.53
2018-07-06T21:14:18.254Z,12.10
2018-07-06T21:16:46.721Z,20.10
2018-07-06T21:19:15.498Z,15.03
2018-07-06T21:21:43.984Z,9.50
2018-07-06T21:24:12.734Z,18.33
2018-07-06T21:26:41.207Z,15.13
2018-07-06T21:29:16.013Z,19.37
2018-07-06T21:31:44.467Z,17.70
2018-07-06T21:34:12.980Z,19.00
2018-07-06T21:36:41.470Z,14.43
2018-07-06T21:39:09.933Z,14.17
2018-07-06T21:41:45.167Z,15.80
2018-07-06T21:44:13.678Z,12.80
2018-07-06T21:46:42.153Z,17.40
2018-07-06T21:49:10.689Z,16.17
2018-07-06T21:51:39.210Z,14.07
2018-07-06T21:54:07.736Z,30.13
2018-07-06T21:56:36.271Z,24.53
2018-07-06T21:59:04.741Z,12.83
2018-07-06T22:01:33.245Z,11.53
2018-07-06T22:04:01.739Z,40.13
2018-07-06T22:06:30.272Z,19.40
2018-07-06T22:08:58.438Z,30.83
2018-07-06T22:11:26.971Z,25.23
2018-07-06T22:13:55.438Z,15.60
2018-07-06T22:16:24.055Z,17.77
2018-07-06T22:18:52.574Z,16.13
2018-07-06T22:21:21.087Z,22.23
2018-07-06T22:23:49.657Z,22.93
2018-07-06T22:26:18.171Z,21.37
2018-07-06T22:28:46.632Z,11.70
2018-07-06T22:31:15.134Z,16.43
2018-07-06T22:33:43.640Z,14.07
2018-07-06T22:36:12.133Z,12.27
2018-07-06T22:38:40.621Z,13.90
2018-07-06T22:41:09.121Z,13.90
2018-07-06T22:43:37.608Z,15.07
2018-07-06T22:58:17.817Z,17.73
2018-07-06T23:00:46.267Z,15.90
2018-07-06T23:03:14.700Z,17.20
2018-07-06T23:05:43.214Z,16.27
2018-07-06T23:08:11.690Z,20.27
2018-07-06T23:10:40.195Z,11.63
2018-07-06T23:13:08.645Z,16.90
2018-07-06T23:15:37.085Z,20.37
2018-07-06T23:18:05.703Z,15.07
2018-07-06T23:20:34.188Z,16.30
2018-07-06T23:23:12.385Z,15.47
2018-07-06T23:25:42.986Z,12.40
2018-07-06T23:28:11.499Z,13.73
2018-07-06T23:30:40.054Z,15.00
2018-07-06T23:33:09.231Z,21.10
2018-07-06T23:35:37.715Z,18.00
2018-07-06T23:38:06.213Z,29.63
2018-07-06T23:40:34.684Z,11.70
2018-07-06T23:43:03.161Z,17.87
2018-07-06T23:45:31.616Z,14.30
2018-07-06T23:48:00.056Z,27.07
2018-07-06T23:50:28.581Z,19.27
2018-07-06T23:52:57.276Z,21.33
2018-07-06T23:55:25.729Z,11.43
2018-07-06T23:57:54.228Z,17.27
